Ubc Bremen — P3ZA7 — position and weather

sailwx.info

Track history (hours):
 
Tides and Currents Weather Stations Pressure Air Temp Water Temp Dewpoint Dewpoint Depression Visibility Wind Speed Wind Dir Waves Ship Positions

Ubc Bremen

Last reported at 2016-Aug-19 00:28 UTC. Time now 2016-Aug-28 08:37 UTC.
Position N 10°55' W 062°02'.
Warning: this ship's position is 9 days out of date.

Length 154 m; draft 8.8 m.

Type: Cargo ship. MMSI: 21260200.

Date/timePositionNaut miles runAvg speedWind from/ knotsBaromVisibWave heightAir tempDewpointWater temp
2016-Aug-19 00:28N 10°55' W 062°02'1314.6
2016-Aug-18 23:33N 10°48' W 061°51'1313.5
2016-Aug-18 22:33N 10°36' W 061°45'1313.4
2016-Aug-18 21:33N 10°26' W 061°35'2 2.2
2016-Aug-18 20:31N 10°25' W 061°34'0 0.0
2016-Aug-18 19:31N 10°25' W 061°34'0 0.0
2016-Aug-18 18:31N 10°25' W 061°34'0 0.0
2016-Aug-18 17:32N 10°25' W 061°34'0 0.0
2016-Aug-18 16:32N 10°25' W 061°34'0 0.0
2016-Aug-18 15:22N 10°25' W 061°34'0 0.1
2016-Aug-18 14:19N 10°25' W 061°34'0 0.1
2016-Aug-18 13:31N 10°25' W 061°34'0 0.0
2016-Aug-18 12:28N 10°25' W 061°34'0 0.1
2016-Aug-18 11:31N 10°25' W 061°34'0 0.1
2016-Aug-18 10:33N 10°25' W 061°34'3 3.4
2016-Aug-18 09:33N 10°24' W 061°30'1 0.4
2016-Aug-18 07:17N 10°24' W 061°30'0 0.0
2016-Aug-18 06:31N 10°24' W 061°30'0 0.0
2016-Aug-18 05:31N 10°24' W 061°30'0 0.0
2016-Aug-18 02:12N 10°24' W 061°30'0 0.0
2016-Aug-18 01:33N 10°24' W 061°30'0 0.0
2016-Aug-18 00:33N 10°24' W 061°30'0 0.0
2016-Aug-17 19:20N 10°24' W 061°30'0 0.0
2016-Aug-17 18:31N 10°24' W 061°30'0 0.0
2016-Aug-17 17:25N 10°24' W 061°30'0 0.0
2016-Aug-17 15:33N 10°24' W 061°30'0 0.0
2016-Aug-17 13:31N 10°24' W 061°30'0 0.0
2016-Aug-17 12:28N 10°24' W 061°30'0 0.0
2016-Aug-17 11:29N 10°24' W 061°30'0 0.0
2016-Aug-17 10:28N 10°24' W 061°30'0 0.1
2016-Aug-17 09:19N 10°24' W 061°30'0 0.0
2016-Aug-17 08:28N 10°24' W 061°30'0 0.0
2016-Aug-17 07:30N 10°24' W 061°30'0 0.0
2016-Aug-17 06:33N 10°24' W 061°30'0 0.0
2016-Aug-17 05:32N 10°24' W 061°30'0 0.0
2016-Aug-17 04:29N 10°24' W 061°30'0 0.0
2016-Aug-17 03:32N 10°24' W 061°30'0 0.0
2016-Aug-17 02:33N 10°24' W 061°30'0 0.0
2016-Aug-17 01:33N 10°24' W 061°30'0 0.0
2016-Aug-17 00:27N 10°24' W 061°30'0 0.0
2016-Aug-16 22:32N 10°24' W 061°30'0 0.0
2016-Aug-16 21:26N 10°24' W 061°30'0 0.0
2016-Aug-16 20:20N 10°24' W 061°30'0 0.0
2016-Aug-16 19:32N 10°24' W 061°30'0 0.0
2016-Aug-16 14:32N 10°24' W 061°30'0 0.0
2016-Aug-16 13:32N 10°24' W 061°30'0 0.0
2016-Aug-16 12:32N 10°24' W 061°30'0 0.0
2016-Aug-16 11:25N 10°24' W 061°30'0 0.0
2016-Aug-16 10:31N 10°24' W 061°30'0 0.0
2016-Aug-16 09:31N 10°24' W 061°30'0 0.0
2016-Aug-16 08:31N 10°24' W 061°30'0 0.0
2016-Aug-16 07:31N 10°24' W 061°30'0 0.0
2016-Aug-16 04:31N 10°24' W 061°30'0 0.0
2016-Aug-16 03:31N 10°24' W 061°30'0 0.0
2016-Aug-16 02:31N 10°24' W 061°30'0 0.0
2016-Aug-16 01:31N 10°24' W 061°30'0 0.0
2016-Aug-16 00:31N 10°24' W 061°30'0 0.0
2016-Aug-15 23:31N 10°24' W 061°30'0 0.0
2016-Aug-15 22:31N 10°24' W 061°30'0 0.0
2016-Aug-15 21:31N 10°24' W 061°30'0 0.0
2016-Aug-15 20:15N 10°24' W 061°30'0 0.0
2016-Aug-15 19:33N 10°24' W 061°30'0 0.0
2016-Aug-15 18:33N 10°24' W 061°30'0 0.0
2016-Aug-15 17:33N 10°24' W 061°30'0 0.0
2016-Aug-15 16:33N 10°24' W 061°30'0 0.0
2016-Aug-15 15:33N 10°24' W 061°30'0 0.0
2016-Aug-15 14:33N 10°24' W 061°30'0 0.0
2016-Aug-15 13:29N 10°24' W 061°30'0 0.0
2016-Aug-15 12:32N 10°24' W 061°30'0 0.0
2016-Aug-15 11:31N 10°24' W 061°30'0 0.0
2016-Aug-15 10:19N 10°24' W 061°30'0 0.2
2016-Aug-15 09:33N 10°24' W 061°30'6 6.2
2016-Aug-15 08:34N 10°24' W 061°36'10 9.7
2016-Aug-15 07:33N 10°24' W 061°46'4 4.0
2016-Aug-15 06:33N 10°28' W 061°47'19 9.6
2016-Aug-15 04:33N 10°47' W 061°49'  
Track history (hours):
 
Tides and Currents Weather Stations Pressure Air Temp Water Temp Dewpoint Dewpoint Depression Visibility Wind Speed Wind Dir Waves Ship Positions

Ubc Bremen

Last reported at 2016-Aug-19 00:28 UTC. Time now 2016-Aug-28 08:37 UTC.
Position N 10°55' W 062°02'.
Warning: this ship's position is 9 days out of date.

Length 154 m; draft 8.8 m.

Type: Cargo ship. MMSI: 21260200.

Date/timePositionNaut miles runAvg speedWind from/ knotsBaromVisibWave heightAir tempDewpointWater temp
2016-Aug-19 00:28N 10°55' W 062°02'1314.6
2016-Aug-18 23:33N 10°48' W 061°51'1313.5
2016-Aug-18 22:33N 10°36' W 061°45'1313.4
2016-Aug-18 21:33N 10°26' W 061°35'2 2.2
2016-Aug-18 20:31N 10°25' W 061°34'0 0.0
2016-Aug-18 19:31N 10°25' W 061°34'0 0.0
2016-Aug-18 18:31N 10°25' W 061°34'0 0.0
2016-Aug-18 17:32N 10°25' W 061°34'0 0.0
2016-Aug-18 16:32N 10°25' W 061°34'0 0.0
2016-Aug-18 15:22N 10°25' W 061°34'0 0.1
2016-Aug-18 14:19N 10°25' W 061°34'0 0.1
2016-Aug-18 13:31N 10°25' W 061°34'0 0.0
2016-Aug-18 12:28N 10°25' W 061°34'0 0.1
2016-Aug-18 11:31N 10°25' W 061°34'0 0.1
2016-Aug-18 10:33N 10°25' W 061°34'3 3.4
2016-Aug-18 09:33N 10°24' W 061°30'1 0.4
2016-Aug-18 07:17N 10°24' W 061°30'0 0.0
2016-Aug-18 06:31N 10°24' W 061°30'0 0.0
2016-Aug-18 05:31N 10°24' W 061°30'0 0.0
2016-Aug-18 02:12N 10°24' W 061°30'0 0.0
2016-Aug-18 01:33N 10°24' W 061°30'0 0.0
2016-Aug-18 00:33N 10°24' W 061°30'0 0.0
2016-Aug-17 19:20N 10°24' W 061°30'0 0.0
2016-Aug-17 18:31N 10°24' W 061°30'0 0.0
2016-Aug-17 17:25N 10°24' W 061°30'0 0.0
2016-Aug-17 15:33N 10°24' W 061°30'0 0.0
2016-Aug-17 13:31N 10°24' W 061°30'0 0.0
2016-Aug-17 12:28N 10°24' W 061°30'0 0.0
2016-Aug-17 11:29N 10°24' W 061°30'0 0.0
2016-Aug-17 10:28N 10°24' W 061°30'0 0.1
2016-Aug-17 09:19N 10°24' W 061°30'0 0.0
2016-Aug-17 08:28N 10°24' W 061°30'0 0.0
2016-Aug-17 07:30N 10°24' W 061°30'0 0.0
2016-Aug-17 06:33N 10°24' W 061°30'0 0.0
2016-Aug-17 05:32N 10°24' W 061°30'0 0.0
2016-Aug-17 04:29N 10°24' W 061°30'0 0.0
2016-Aug-17 03:32N 10°24' W 061°30'0 0.0
2016-Aug-17 02:33N 10°24' W 061°30'0 0.0
2016-Aug-17 01:33N 10°24' W 061°30'0 0.0
2016-Aug-17 00:27N 10°24' W 061°30'0 0.0
2016-Aug-16 22:32N 10°24' W 061°30'0 0.0
2016-Aug-16 21:26N 10°24' W 061°30'0 0.0
2016-Aug-16 20:20N 10°24' W 061°30'0 0.0
2016-Aug-16 19:32N 10°24' W 061°30'0 0.0
2016-Aug-16 14:32N 10°24' W 061°30'0 0.0
2016-Aug-16 13:32N 10°24' W 061°30'0 0.0
2016-Aug-16 12:32N 10°24' W 061°30'0 0.0
2016-Aug-16 11:25N 10°24' W 061°30'0 0.0
2016-Aug-16 10:31N 10°24' W 061°30'0 0.0
2016-Aug-16 09:31N 10°24' W 061°30'0 0.0
2016-Aug-16 08:31N 10°24' W 061°30'0 0.0
2016-Aug-16 07:31N 10°24' W 061°30'0 0.0
2016-Aug-16 04:31N 10°24' W 061°30'0 0.0
2016-Aug-16 03:31N 10°24' W 061°30'0 0.0
2016-Aug-16 02:31N 10°24' W 061°30'0 0.0
2016-Aug-16 01:31N 10°24' W 061°30'0 0.0
2016-Aug-16 00:31N 10°24' W 061°30'0 0.0
2016-Aug-15 23:31N 10°24' W 061°30'0 0.0
2016-Aug-15 22:31N 10°24' W 061°30'0 0.0
2016-Aug-15 21:31N 10°24' W 061°30'0 0.0
2016-Aug-15 20:15N 10°24' W 061°30'0 0.0
2016-Aug-15 19:33N 10°24' W 061°30'0 0.0
2016-Aug-15 18:33N 10°24' W 061°30'0 0.0
2016-Aug-15 17:33N 10°24' W 061°30'0 0.0
2016-Aug-15 16:33N 10°24' W 061°30'0 0.0
2016-Aug-15 15:33N 10°24' W 061°30'0 0.0
2016-Aug-15 14:33N 10°24' W 061°30'0 0.0
2016-Aug-15 13:29N 10°24' W 061°30'0 0.0
2016-Aug-15 12:32N 10°24' W 061°30'0 0.0
2016-Aug-15 11:31N 10°24' W 061°30'0 0.0
2016-Aug-15 10:19N 10°24' W 061°30'0 0.2
2016-Aug-15 09:33N 10°24' W 061°30'6 6.2
2016-Aug-15 08:34N 10°24' W 061°36'10 9.7
2016-Aug-15 07:33N 10°24' W 061°46'4 4.0
2016-Aug-15 06:33N 10°28' W 061°47'19 9.6
2016-Aug-15 04:33N 10°47' W 061°49'  

Dump ship's entire track history